Time;durP1;ratioP1;P1;durP2;ratioP2;P2;SDS_P1;SDS_P2;PMS_P1;PMS_P2;Temp;Humidity;BMP_temperature;BMP_pressure;BME280_temperature;BME280_humidity;BME280_pressure;Samples;Min_cycle;Max_cycle;Signal;HPM_P1;HPM_P2
2021/01/19 00:00:22;;;;;;;2.87;2.20;;;7.30;53.10;;;;;;5031278;28;20189;-41
2021/01/19 00:02:48;;;;;;;2.50;2.30;;;7.30;53.30;;;;;;5030261;28;20533;-41
2021/01/19 00:05:13;;;;;;;3.03;1.77;;;7.30;53.40;;;;;;5027816;28;20206;-41
2021/01/19 00:07:39;;;;;;;1.83;1.70;;;7.20;53.30;;;;;;5028191;28;20234;-41
2021/01/19 00:10:06;;;;;;;2.60;2.00;;;7.30;53.50;;;;;;5031146;28;20435;-41
2021/01/19 00:12:31;;;;;;;1.90;1.63;;;7.50;53.30;;;;;;5030361;28;20201;-41
2021/01/19 00:14:57;;;;;;;2.43;2.23;;;7.50;52.90;;;;;;5021100;28;20428;-41
2021/01/19 00:17:23;;;;;;;3.50;1.90;;;7.50;53.30;;;;;;5030525;28;20227;-41
2021/01/19 00:19:48;;;;;;;3.10;2.10;;;7.50;52.60;;;;;;5022225;28;20200;-41
2021/01/19 00:22:14;;;;;;;6.30;2.37;;;7.50;52.80;;;;;;5020970;28;20712;-41
2021/01/19 00:24:39;;;;;;;4.33;2.40;;;7.50;52.70;;;;;;5025883;28;20300;-41
2021/01/19 00:27:05;;;;;;;2.57;1.87;;;7.50;52.50;;;;;;5017056;28;20213;-41
2021/01/19 00:29:31;;;;;;;2.50;1.80;;;7.60;52.40;;;;;;5029885;28;20194;-41
2021/01/19 00:31:56;;;;;;;2.30;1.97;;;7.60;52.40;;;;;;5027874;28;20670;-41
2021/01/19 00:34:22;;;;;;;3.70;2.07;;;7.60;52.40;;;;;;5028000;28;20224;-41
2021/01/19 00:36:48;;;;;;;2.53;1.83;;;7.60;52.10;;;;;;5030087;28;20189;-41
2021/01/19 00:39:13;;;;;;;5.30;1.90;;;7.60;52.10;;;;;;5029529;28;20644;-41
2021/01/19 00:41:39;;;;;;;3.10;2.40;;;7.60;52.20;;;;;;5030857;28;20813;-41
2021/01/19 00:44:05;;;;;;;3.53;1.60;;;7.60;52.20;;;;;;5025071;28;20230;-41
2021/01/19 00:46:31;;;;;;;1.90;1.63;;;7.60;52.10;;;;;;5021228;28;20279;-41
2021/01/19 00:48:57;;;;;;;3.00;1.80;;;7.50;52.20;;;;;;5022216;28;20603;-41
2021/01/19 00:51:23;;;;;;;4.30;2.17;;;7.50;52.30;;;;;;5025324;28;20197;-41
2021/01/19 00:53:48;;;;;;;5.23;1.57;;;7.50;52.30;;;;;;5031621;28;20547;-41
2021/01/19 00:56:14;;;;;;;3.27;2.30;;;7.20;52.20;;;;;;5028800;28;20431;-41
2021/01/19 00:58:39;;;;;;;3.37;2.23;;;7.00;53.00;;;;;;5029420;28;20563;-41
2021/01/19 01:01:05;;;;;;;2.73;1.80;;;7.00;53.20;;;;;;5028888;28;20197;-41
2021/01/19 01:03:33;;;;;;;2.93;1.70;;;7.00;53.20;;;;;;5038516;28;20673;-41
2021/01/19 01:05:58;;;;;;;2.67;1.80;;;7.00;53.20;;;;;;5027667;28;20215;-41
2021/01/19 01:08:24;;;;;;;2.13;1.80;;;6.80;53.50;;;;;;5029796;28;20487;-41
2021/01/19 01:10:50;;;;;;;1.70;1.60;;;6.70;53.90;;;;;;5029891;28;20593;-41
2021/01/19 01:13:17;;;;;;;3.80;1.90;;;6.20;54.10;;;;;;5024423;28;20213;-41
2021/01/19 01:15:43;;;;;;;2.00;1.83;;;6.20;54.80;;;;;;5026376;28;20450;-41
2021/01/19 01:18:13;;;;;;;1.80;1.70;;;6.20;55.30;;;;;;5026992;28;20424;-41
2021/01/19 01:20:42;;;;;;;2.27;1.53;;;6.00;55.20;;;;;;5024300;28;20454;-41
2021/01/19 01:23:13;;;;;;;4.07;1.93;;;6.00;55.40;;;;;;5026890;28;20437;-41
2021/01/19 01:25:39;;;;;;;3.10;1.70;;;6.10;55.10;;;;;;5023197;28;20440;-41
2021/01/19 01:28:05;;;;;;;2.47;1.67;;;6.10;54.80;;;;;;5029183;28;20578;-41
2021/01/19 01:30:30;;;;;;;5.23;2.33;;;6.10;54.70;;;;;;5026128;28;20527;-41
2021/01/19 01:32:56;;;;;;;3.13;2.13;;;6.00;54.70;;;;;;5027771;28;20202;-41
2021/01/19 01:35:22;;;;;;;4.00;1.90;;;6.00;54.90;;;;;;5029491;28;20186;-41
2021/01/19 01:37:51;;;;;;;2.87;2.03;;;5.90;54.70;;;;;;5022981;28;20201;-41
2021/01/19 01:40:19;;;;;;;2.30;2.10;;;6.00;54.90;;;;;;5033691;28;20432;-41
2021/01/19 01:42:45;;;;;;;3.23;2.20;;;6.10;54.70;;;;;;5032548;28;20436;-41
2021/01/19 01:45:12;;;;;;;2.93;1.90;;;6.30;54.60;;;;;;5031996;28;20721;-41
2021/01/19 01:47:39;;;;;;;3.07;2.10;;;6.40;54.10;;;;;;5033219;28;20275;-42
2021/01/19 01:50:05;;;;;;;2.10;1.87;;;6.50;53.90;;;;;;5031057;28;20455;-41
2021/01/19 01:52:32;;;;;;;4.77;2.50;;;6.30;53.90;;;;;;5022838;28;20476;-41
2021/01/19 01:54:57;;;;;;;4.23;2.27;;;6.40;54.00;;;;;;5032795;28;20432;-41
2021/01/19 01:57:23;;;;;;;3.90;2.30;;;6.50;53.80;;;;;;5026012;28;20497;-41
2021/01/19 01:59:52;;;;;;;3.20;2.00;;;6.60;53.80;;;;;;5032978;28;20201;-41
2021/01/19 02:02:17;;;;;;;6.60;2.13;;;6.60;53.50;;;;;;5028437;28;20343;-41
2021/01/19 02:04:43;;;;;;;2.00;1.67;;;6.60;53.50;;;;;;5032831;28;20519;-41
2021/01/19 02:07:37;;;;;;;5.90;2.40;;;6.40;53.70;;;;;;5022294;28;20233;-41
2021/01/19 02:10:12;;;;;;;2.20;1.90;;;6.50;53.80;;;;;;5007055;28;20205;-42
2021/01/19 02:12:50;;;;;;;3.40;2.43;;;6.50;53.60;;;;;;5023965;28;20529;-41
2021/01/19 02:15:21;;;;;;;4.37;2.27;;;6.50;53.90;;;;;;5026235;28;20818;-41
2021/01/19 02:17:56;;;;;;;3.23;2.10;;;6.50;53.80;;;;;;5023801;28;20511;-41
2021/01/19 02:20:53;;;;;;;3.70;2.23;;;6.50;53.60;;;;;;5032429;28;20519;-41
2021/01/19 02:23:34;;;;;;;2.30;1.73;;;6.60;53.40;;;;;;5016004;28;20523;-41
2021/01/19 02:26:27;;;;;;;4.67;2.73;;;6.50;53.30;;;;;;5025030;28;20538;-41
2021/01/19 02:28:58;;;;;;;3.10;2.10;;;6.60;53.20;;;;;;5021254;28;20497;-41
2021/01/19 02:31:41;;;;;;;3.23;2.30;;;6.60;53.00;;;;;;5025492;28;20445;-41
2021/01/19 02:34:14;;;;;;;4.53;2.40;;;6.70;53.10;;;;;;5024995;28;20443;-41
2021/01/19 02:36:50;;;;;;;2.43;2.23;;;6.80;52.70;;;;;;5032642;28;20523;-41
2021/01/19 02:39:24;;;;;;;2.00;1.80;;;6.90;52.40;;;;;;5030178;28;20467;-41
2021/01/19 02:41:53;;;;;;;3.50;2.10;;;7.00;52.30;;;;;;5021841;28;20468;-41
2021/01/19 02:44:20;;;;;;;3.73;2.10;;;7.10;52.10;;;;;;5024967;28;20429;-41
2021/01/19 02:46:54;;;;;;;6.83;1.93;;;7.10;52.00;;;;;;5029177;28;20529;-41
2021/01/19 02:49:22;;;;;;;3.63;2.00;;;7.00;52.00;;;;;;5031432;28;20531;-41
2021/01/19 02:51:50;;;;;;;2.20;1.60;;;7.00;52.30;;;;;;5032666;28;20839;-42
2021/01/19 02:54:16;;;;;;;2.13;2.00;;;6.90;52.10;;;;;;5027719;28;20431;-41
2021/01/19 02:56:45;;;;;;;2.27;1.73;;;7.00;52.00;;;;;;5029441;28;20432;-41
2021/01/19 02:59:20;;;;;;;2.93;1.77;;;7.00;52.00;;;;;;5027805;28;20967;-41
2021/01/19 03:02:00;;;;;;;2.63;1.80;;;7.00;51.90;;;;;;5028968;28;20439;-41
2021/01/19 03:04:29;;;;;;;4.43;1.90;;;7.10;51.70;;;;;;5028227;28;20450;-41
2021/01/19 03:06:57;;;;;;;2.30;1.83;;;7.20;51.60;;;;;;5028584;28;20587;-41
2021/01/19 03:09:23;;;;;;;2.90;2.00;;;7.20;51.50;;;;;;5021404;28;20870;-41
2021/01/19 03:11:50;;;;;;;2.73;1.93;;;7.20;51.60;;;;;;5032335;28;20498;-41
2021/01/19 03:14:16;;;;;;;2.00;1.73;;;7.30;51.60;;;;;;5027756;28;20439;-41
2021/01/19 03:16:45;;;;;;;4.50;2.17;;;7.20;51.50;;;;;;5025635;28;20428;-41
2021/01/19 03:19:11;;;;;;;2.23;1.90;;;7.20;51.50;;;;;;5030984;28;20519;-41
2021/01/19 03:21:37;;;;;;;3.43;1.90;;;7.20;51.40;;;;;;5026472;28;20920;-42
2021/01/19 03:24:02;;;;;;;2.80;1.93;;;7.10;51.40;;;;;;5021778;28;20443;-41
2021/01/19 03:26:28;;;;;;;4.50;1.97;;;7.10;51.60;;;;;;5026838;28;20197;-41
2021/01/19 03:28:53;;;;;;;2.77;2.53;;;7.20;51.60;;;;;;5026968;28;20328;-41
2021/01/19 03:31:19;;;;;;;6.50;2.40;;;7.20;51.60;;;;;;5031141;28;20202;-41
2021/01/19 03:33:45;;;;;;;3.90;2.03;;;7.20;51.60;;;;;;5031009;28;20649;-41
2021/01/19 03:36:10;;;;;;;2.70;2.13;;;7.20;51.40;;;;;;5023455;28;20189;-41
2021/01/19 03:38:36;;;;;;;2.50;1.63;;;7.20;51.50;;;;;;5021940;28;20592;-41
2021/01/19 03:41:02;;;;;;;4.63;1.97;;;7.30;51.50;;;;;;5030789;28;20554;-41
2021/01/19 03:43:28;;;;;;;1.90;1.60;;;7.30;51.50;;;;;;5025915;28;20201;-41
2021/01/19 03:45:53;;;;;;;1.97;1.73;;;7.30;51.50;;;;;;5031287;28;20435;-41
2021/01/19 03:48:19;;;;;;;1.73;1.60;;;7.20;51.50;;;;;;5030849;28;20347;-41
2021/01/19 03:50:45;;;;;;;8.93;2.07;;;7.20;51.60;;;;;;5024502;28;20657;-41
2021/01/19 03:53:10;;;;;;;3.50;2.17;;;7.20;51.50;;;;;;5031450;28;20225;-41
2021/01/19 03:55:36;;;;;;;3.43;1.97;;;7.20;51.30;;;;;;5030354;28;20657;-41
2021/01/19 03:58:02;;;;;;;6.23;1.83;;;7.20;51.30;;;;;;5030563;28;20193;-41
2021/01/19 04:00:27;;;;;;;2.50;1.70;;;7.20;51.40;;;;;;5024562;28;20197;-41
2021/01/19 04:02:53;;;;;;;4.70;2.10;;;7.00;51.60;;;;;;5030395;28;20197;-41
2021/01/19 04:05:18;;;;;;;2.60;1.87;;;7.10;51.60;;;;;;5029299;28;20192;-41
2021/01/19 04:07:44;;;;;;;3.40;2.07;;;7.10;51.60;;;;;;5030127;28;20233;-41
2021/01/19 04:10:13;;;;;;;2.23;1.70;;;7.10;51.70;;;;;;5025734;28;20189;-41
2021/01/19 04:12:39;;;;;;;3.40;1.60;;;7.10;51.70;;;;;;5020457;28;20217;-41
2021/01/19 04:15:05;;;;;;;2.03;1.83;;;7.20;51.70;;;;;;5026374;28;20437;-41
2021/01/19 04:17:31;;;;;;;1.80;1.70;;;7.10;51.50;;;;;;5017114;28;20201;-41
2021/01/19 04:19:57;;;;;;;2.97;2.00;;;7.10;51.60;;;;;;5030528;28;20424;-41
2021/01/19 04:22:24;;;;;;;2.07;1.80;;;7.20;51.70;;;;;;5029983;28;20273;-41
2021/01/19 04:24:51;;;;;;;5.77;2.20;;;7.30;51.60;;;;;;5025319;28;20589;-41
2021/01/19 04:27:16;;;;;;;4.57;2.00;;;7.20;51.40;;;;;;5015439;28;20505;-41
2021/01/19 04:29:42;;;;;;;3.60;2.30;;;7.30;51.50;;;;;;5024085;28;20440;-41
2021/01/19 04:32:07;;;;;;;4.60;1.63;;;7.20;51.30;;;;;;5022869;28;20264;-41
2021/01/19 04:34:33;;;;;;;1.93;1.50;;;7.20;51.30;;;;;;5029701;28;20216;-41
2021/01/19 04:36:58;;;;;;;1.97;1.43;;;7.20;51.30;;;;;;5032098;28;20315;-41
2021/01/19 04:39:24;;;;;;;1.73;1.53;;;7.20;51.00;;;;;;5014869;28;20185;-41
2021/01/19 04:41:49;;;;;;;3.77;1.70;;;7.20;51.30;;;;;;5017603;28;20277;-41
2021/01/19 04:44:16;;;;;;;2.10;1.90;;;7.10;51.40;;;;;;5029718;28;20251;-41
2021/01/19 04:46:44;;;;;;;4.00;2.00;;;7.00;51.50;;;;;;5030099;28;20228;-41
2021/01/19 04:49:10;;;;;;;3.60;1.67;;;7.00;51.50;;;;;;5027957;28;20464;-41
2021/01/19 04:51:38;;;;;;;5.27;1.67;;;6.90;51.60;;;;;;5028117;28;20432;-41
2021/01/19 04:54:06;;;;;;;2.03;1.40;;;6.80;51.60;;;;;;5029616;28;20802;-41
2021/01/19 04:56:35;;;;;;;3.50;1.83;;;6.70;51.80;;;;;;5026000;28;20440;-41
2021/01/19 04:59:11;;;;;;;6.40;1.83;;;6.80;51.80;;;;;;5028525;28;20519;-41
2021/01/19 05:01:38;;;;;;;1.80;1.70;;;6.80;51.90;;;;;;5026906;28;20462;-41
2021/01/19 05:04:41;;;;;;;3.13;2.50;;;6.80;51.70;;;;;;5023399;28;20507;-41
2021/01/19 05:07:32;;;;;;;2.03;1.53;;;6.80;51.60;;;;;;5023161;28;20994;-41
2021/01/19 05:10:13;;;;;;;1.70;1.40;;;6.70;51.60;;;;;;5023902;28;20447;-41
2021/01/19 05:12:45;;;;;;;2.07;1.53;;;6.70;52.30;;;;;;5021177;28;20464;-41
2021/01/19 05:15:15;;;;;;;5.10;1.20;;;6.70;52.20;;;;;;5028012;28;20449;-41
2021/01/19 05:17:42;;;;;;;2.73;1.90;;;6.70;52.10;;;;;;5031799;28;20523;-41
2021/01/19 05:20:09;;;;;;;1.57;1.47;;;6.70;52.00;;;;;;5034633;28;20455;-41
2021/01/19 05:22:34;;;;;;;3.20;1.60;;;6.60;52.10;;;;;;5032960;28;20919;-41
2021/01/19 05:25:00;;;;;;;1.80;1.70;;;6.60;52.20;;;;;;5028976;28;20439;-41
2021/01/19 05:27:27;;;;;;;2.30;2.10;;;6.60;52.10;;;;;;5031783;28;20217;-41
2021/01/19 05:30:20;;;;;;;3.47;1.83;;;6.60;52.00;;;;;;5033444;28;20424;-42
2021/01/19 05:32:46;;;;;;;3.67;1.93;;;6.60;52.10;;;;;;5021780;28;20463;-41
2021/01/19 05:35:19;;;;;;;3.87;2.47;;;6.60;52.10;;;;;;5034021;28;20427;-41
2021/01/19 05:38:03;;;;;;;4.80;2.27;;;6.70;52.00;;;;;;5032492;28;20718;-41
2021/01/19 05:40:29;;;;;;;2.73;1.87;;;6.70;52.10;;;;;;5032558;28;20497;-41
2021/01/19 05:42:54;;;;;;;4.87;2.23;;;6.80;51.90;;;;;;5025017;28;20945;-41
2021/01/19 05:45:21;;;;;;;2.30;2.10;;;6.70;51.70;;;;;;5027430;28;20185;-41
2021/01/19 05:47:46;;;;;;;3.50;2.20;;;6.70;51.60;;;;;;5033210;28;20882;-41
2021/01/19 05:50:13;;;;;;;2.50;2.00;;;6.60;51.80;;;;;;5032682;28;20432;-41
2021/01/19 05:52:39;;;;;;;4.73;2.83;;;6.50;51.80;;;;;;5030455;28;20233;-41
2021/01/19 05:55:05;;;;;;;2.03;1.83;;;6.50;51.90;;;;;;5031964;28;20431;-41
2021/01/19 05:57:31;;;;;;;3.47;2.27;;;6.40;51.80;;;;;;5026114;28;20626;-41
2021/01/19 05:59:59;;;;;;;4.43;2.17;;;6.40;52.00;;;;;;5032148;28;20467;-41
2021/01/19 06:02:41;;;;;;;2.40;2.20;;;6.40;52.60;;;;;;5013754;28;20877;-41
2021/01/19 06:05:15;;;;;;;2.33;2.13;;;6.50;52.70;;;;;;5031485;28;20440;-41
2021/01/19 06:07:45;;;;;;;2.50;2.00;;;6.60;52.70;;;;;;5033034;28;20589;-41
2021/01/19 06:10:13;;;;;;;4.03;1.93;;;6.60;52.40;;;;;;5029021;28;20434;-41
2021/01/19 06:12:39;;;;;;;2.20;2.00;;;6.70;51.90;;;;;;5032454;28;20443;-41
2021/01/19 06:15:06;;;;;;;4.37;1.83;;;6.80;51.90;;;;;;5031901;28;20435;-41
2021/01/19 06:17:32;;;;;;;3.07;2.10;;;6.80;51.90;;;;;;5031965;28;20260;-41
2021/01/19 06:19:59;;;;;;;2.67;1.70;;;7.00;51.60;;;;;;5028149;28;20895;-41
2021/01/19 06:22:27;;;;;;;2.63;1.67;;;7.10;51.90;;;;;;5032419;28;20312;-41
2021/01/19 06:24:57;;;;;;;3.17;2.03;;;7.40;51.60;;;;;;5027347;28;20515;-42
2021/01/19 06:27:22;;;;;;;1.80;1.70;;;7.50;51.40;;;;;;5032256;28;20491;-41
2021/01/19 06:29:49;;;;;;;4.10;1.90;;;7.50;50.60;;;;;;5031612;28;21005;-41
2021/01/19 06:32:16;;;;;;;3.53;1.70;;;7.40;49.90;;;;;;5032619;28;20201;-42
2021/01/19 06:34:42;;;;;;;1.80;1.70;;;7.20;49.80;;;;;;5031734;28;20425;-41
2021/01/19 06:37:10;;;;;;;2.20;2.00;;;7.20;50.20;;;;;;5031594;28;20781;-41
2021/01/19 06:39:39;;;;;;;4.03;2.20;;;7.10;50.30;;;;;;5025221;28;20856;-41
2021/01/19 06:42:06;;;;;;;3.23;2.17;;;7.10;50.30;;;;;;5031518;28;20586;-42
2021/01/19 06:44:44;;;;;;;3.60;2.20;;;7.20;50.20;;;;;;5022342;28;20523;-41
2021/01/19 06:47:10;;;;;;;5.43;1.83;;;7.40;50.20;;;;;;5020450;28;20479;-41
2021/01/19 06:49:38;;;;;;;2.67;2.20;;;7.50;50.00;;;;;;5026826;28;20428;-41
2021/01/19 06:52:12;;;;;;;3.30;2.27;;;7.60;49.40;;;;;;5022854;28;20495;-42
2021/01/19 06:54:54;;;;;;;3.93;2.27;;;7.70;49.10;;;;;;5028433;28;20486;-41
2021/01/19 06:57:28;;;;;;;5.50;2.03;;;7.80;48.70;;;;;;5030282;28;20440;-42
2021/01/19 07:00:09;;;;;;;2.13;1.93;;;7.60;48.60;;;;;;5031176;28;20801;-41
2021/01/19 07:02:37;;;;;;;2.37;1.93;;;7.60;48.60;;;;;;5024636;28;20444;-41
2021/01/19 07:05:11;;;;;;;2.73;2.00;;;7.70;48.70;;;;;;5030465;28;20797;-42
2021/01/19 07:07:43;;;;;;;3.30;2.27;;;7.60;48.40;;;;;;5029111;28;20483;-41
2021/01/19 07:10:09;;;;;;;4.40;2.07;;;7.60;48.70;;;;;;5029754;28;20871;-41
2021/01/19 07:13:07;;;;;;;2.70;2.10;;;7.50;48.60;;;;;;5025678;28;20437;-42
2021/01/19 07:16:09;;;;;;;2.70;1.90;;;7.50;48.60;;;;;;4995488;28;20562;-41
2021/01/19 07:18:45;;;;;;;4.23;2.20;;;7.60;48.60;;;;;;5022759;28;21061;-41
2021/01/19 07:21:15;;;;;;;2.20;2.03;;;7.70;48.70;;;;;;5030541;28;20436;-41
2021/01/19 07:23:46;;;;;;;3.73;2.30;;;7.80;48.50;;;;;;5020916;28;20845;-41
2021/01/19 07:26:20;;;;;;;2.70;2.50;;;7.90;48.30;;;;;;5014959;28;20448;-41
2021/01/19 07:28:47;;;;;;;4.67;2.40;;;7.80;47.80;;;;;;5012447;28;20603;-41
2021/01/19 07:31:18;;;;;;;4.43;2.97;;;7.90;48.00;;;;;;5012900;28;20484;-41
2021/01/19 07:33:49;;;;;;;2.93;2.70;;;7.90;47.90;;;;;;5019686;28;20428;-41
2021/01/19 07:36:17;;;;;;;2.53;2.30;;;7.70;47.90;;;;;;5019493;28;20532;-41
2021/01/19 07:38:42;;;;;;;3.10;2.17;;;7.70;48.20;;;;;;5029832;28;20915;-41
2021/01/19 07:41:09;;;;;;;2.53;2.10;;;7.60;48.00;;;;;;5030567;28;20432;-41
2021/01/19 07:43:36;;;;;;;4.00;2.13;;;7.50;48.10;;;;;;5028688;28;20220;-41
2021/01/19 07:46:02;;;;;;;2.17;1.97;;;7.30;48.50;;;;;;5023679;28;20437;-41
2021/01/19 07:48:33;;;;;;;5.67;3.70;;;7.30;48.70;;;;;;5029081;28;20496;-41
2021/01/19 07:51:15;;;;;;;4.90;2.43;;;7.30;48.90;;;;;;5031696;28;20477;-41
2021/01/19 07:53:55;;;;;;;3.23;2.80;;;7.20;49.10;;;;;;5016626;28;20837;-41
2021/01/19 07:56:29;;;;;;;2.03;1.83;;;7.10;49.30;;;;;;5019286;28;20877;-41
2021/01/19 07:58:56;;;;;;;4.63;2.50;;;7.10;49.30;;;;;;5027654;28;20436;-42
2021/01/19 08:01:30;;;;;;;3.60;2.07;;;6.90;49.60;;;;;;5019835;28;20524;-41
2021/01/19 08:04:09;;;;;;;2.80;1.90;;;7.00;49.70;;;;;;5015910;28;20806;-41
2021/01/19 08:06:34;;;;;;;3.70;1.80;;;7.10;49.70;;;;;;5028004;28;20796;-41
2021/01/19 08:09:14;;;;;;;2.90;2.07;;;7.20;49.50;;;;;;5018301;28;20625;-41
2021/01/19 08:11:41;;;;;;;3.17;2.03;;;7.30;49.40;;;;;;5028915;28;20289;-41
2021/01/19 08:14:07;;;;;;;4.40;2.30;;;7.40;49.10;;;;;;5028368;28;20968;-41
2021/01/19 08:16:36;;;;;;;3.33;2.00;;;7.50;48.90;;;;;;5023438;28;20497;-41
2021/01/19 08:19:10;;;;;;;1.90;1.80;;;7.50;48.80;;;;;;5024874;28;20432;-41
2021/01/19 08:21:47;;;;;;;2.30;2.10;;;7.60;48.70;;;;;;5025938;28;20822;-41
2021/01/19 08:24:13;;;;;;;2.37;1.90;;;7.50;48.50;;;;;;5016643;28;20475;-41
2021/01/19 08:26:38;;;;;;;2.10;1.80;;;7.50;48.80;;;;;;5025997;28;20920;-41
2021/01/19 08:29:05;;;;;;;2.53;1.87;;;7.60;48.90;;;;;;5030532;28;20227;-41
2021/01/19 08:31:33;;;;;;;4.60;1.90;;;7.60;48.70;;;;;;5030982;28;20432;-41
2021/01/19 08:34:00;;;;;;;3.40;1.87;;;7.60;48.50;;;;;;5030543;28;20451;-41
2021/01/19 08:36:27;;;;;;;3.67;1.87;;;7.70;48.80;;;;;;5030530;28;20456;-41
2021/01/19 08:38:56;;;;;;;3.80;2.43;;;7.80;49.10;;;;;;5030246;28;20416;-41
2021/01/19 08:41:21;;;;;;;2.60;2.40;;;7.90;49.20;;;;;;5011462;28;20425;-41
2021/01/19 08:43:55;;;;;;;2.10;1.90;;;8.10;48.70;;;;;;5008882;28;20923;-41
2021/01/19 08:46:22;;;;;;;2.93;2.57;;;7.90;48.00;;;;;;5010947;28;20548;-41
2021/01/19 08:48:49;;;;;;;3.00;2.40;;;8.00;48.20;;;;;;5010488;28;20492;-41
2021/01/19 08:51:22;;;;;;;2.50;2.30;;;8.10;48.00;;;;;;5011216;28;20425;-41
2021/01/19 08:53:47;;;;;;;4.70;2.60;;;8.30;48.10;;;;;;5020648;28;20994;-41
2021/01/19 08:56:20;;;;;;;5.20;2.37;;;8.40;47.80;;;;;;5030162;28;20443;-41
2021/01/19 08:58:46;;;;;;;3.53;2.23;;;8.40;47.10;;;;;;5030413;28;20516;-41
2021/01/19 09:01:12;;;;;;;3.20;2.20;;;8.40;46.80;;;;;;5023932;28;20482;-42
2021/01/19 09:03:38;;;;;;;3.20;2.43;;;8.30;46.90;;;;;;5029684;28;20918;-41
2021/01/19 09:06:05;;;;;;;2.30;2.07;;;8.40;47.10;;;;;;5019373;28;20543;-41
2021/01/19 09:08:31;;;;;;;4.40;2.00;;;8.50;47.20;;;;;;5025661;28;20232;-41
2021/01/19 09:11:02;;;;;;;4.27;3.10;;;8.60;46.90;;;;;;5028510;28;20432;-41
2021/01/19 09:13:30;;;;;;;2.07;1.87;;;8.70;46.80;;;;;;5026651;28;20193;-41
2021/01/19 09:15:56;;;;;;;2.93;2.20;;;8.60;46.70;;;;;;5018981;28;20464;-41
2021/01/19 09:18:23;;;;;;;3.53;2.60;;;8.60;46.50;;;;;;5023753;28;20941;-41
2021/01/19 09:21:00;;;;;;;2.27;2.07;;;8.50;46.30;;;;;;5030808;28;20551;-41
2021/01/19 09:23:33;;;;;;;2.63;1.77;;;8.50;46.60;;;;;;5024114;28;20955;-41
2021/01/19 09:26:07;;;;;;;5.17;2.10;;;8.30;46.40;;;;;;5029993;28;20447;-41
2021/01/19 09:28:36;;;;;;;3.40;2.50;;;8.30;46.40;;;;;;5022888;28;20476;-41
2021/01/19 09:31:23;;;;;;;3.53;2.60;;;8.30;46.20;;;;;;5026933;28;20469;-41
2021/01/19 09:33:54;;;;;;;12.93;2.53;;;8.30;46.10;;;;;;5025304;28;20489;-41
2021/01/19 09:36:21;;;;;;;5.77;2.57;;;8.30;46.10;;;;;;5029403;28;20432;-41
2021/01/19 09:38:53;;;;;;;4.80;2.20;;;8.10;46.30;;;;;;5024014;28;20432;-41
2021/01/19 09:41:24;;;;;;;4.50;2.50;;;8.10;46.40;;;;;;5025585;28;20448;-41
2021/01/19 09:43:52;;;;;;;4.20;2.67;;;8.00;46.70;;;;;;5019568;28;20436;-41
2021/01/19 09:46:22;;;;;;;4.07;3.10;;;8.10;46.80;;;;;;5024593;28;20437;-41
2021/01/19 09:48:50;;;;;;;4.20;3.00;;;8.10;46.80;;;;;;5012549;28;20882;-41
2021/01/19 09:51:27;;;;;;;4.17;2.90;;;7.90;46.90;;;;;;5019985;28;20447;-41
2021/01/19 09:53:57;;;;;;;2.53;2.33;;;7.90;47.10;;;;;;5024887;28;20443;-41
2021/01/19 09:56:23;;;;;;;3.20;2.60;;;7.90;47.10;;;;;;5025410;28;20446;-41
2021/01/19 09:59:03;;;;;;;5.70;2.73;;;8.00;47.20;;;;;;5021707;28;20436;-41
2021/01/19 10:01:29;;;;;;;3.57;2.90;;;7.70;47.30;;;;;;5019711;28;20448;-41
2021/01/19 10:03:54;;;;;;;5.17;2.93;;;7.20;47.60;;;;;;5028007;28;20440;-40
2021/01/19 10:06:21;;;;;;;3.40;2.80;;;7.10;49.20;;;;;;5031419;28;20204;-41
2021/01/19 10:08:54;;;;;;;4.27;2.60;;;7.30;49.30;;;;;;5028373;28;20228;-41
2021/01/19 10:11:34;;;;;;;4.27;2.83;;;7.30;49.10;;;;;;5026853;28;20436;-41
2021/01/19 10:14:13;;;;;;;4.80;3.10;;;7.40;49.00;;;;;;5027599;28;20470;-41
2021/01/19 10:16:48;;;;;;;6.07;3.27;;;7.20;49.10;;;;;;5028264;28;20436;-41
2021/01/19 10:19:25;;;;;;;5.37;3.00;;;7.30;49.20;;;;;;5021173;28;20478;-41
2021/01/19 10:21:56;;;;;;;6.10;3.00;;;7.30;49.60;;;;;;5031870;28;20494;-41
2021/01/19 10:24:24;;;;;;;6.30;3.10;;;7.30;49.20;;;;;;5023344;28;20436;-41
2021/01/19 10:27:05;;;;;;;3.90;2.60;;;7.30;49.20;;;;;;5029433;28;20436;-41
2021/01/19 10:29:36;;;;;;;3.50;2.80;;;7.50;49.10;;;;;;5026560;28;20559;-41
2021/01/19 10:32:05;;;;;;;4.50;3.40;;;7.70;49.50;;;;;;5029431;28;20490;-41
2021/01/19 10:34:33;;;;;;;6.20;3.33;;;7.80;48.40;;;;;;5024927;28;20443;-41
2021/01/19 10:36:59;;;;;;;5.43;3.20;;;7.70;48.40;;;;;;5031758;28;20543;-41
2021/01/19 10:39:26;;;;;;;2.83;2.63;;;7.70;48.60;;;;;;5029872;28;20470;-41
2021/01/19 10:41:53;;;;;;;5.53;3.20;;;7.80;48.80;;;;;;5032142;28;20930;-42
2021/01/19 10:44:22;;;;;;;4.77;2.97;;;7.90;48.70;;;;;;5026819;28;20455;-42
2021/01/19 10:46:58;;;;;;;5.00;3.23;;;7.80;48.80;;;;;;5030131;28;20978;-42
2021/01/19 10:49:29;;;;;;;5.20;3.20;;;8.00;49.10;;;;;;5026059;28;20827;-41
2021/01/19 10:51:55;;;;;;;4.93;3.37;;;8.10;48.60;;;;;;5025703;28;20466;-41
2021/01/19 10:54:21;;;;;;;5.80;3.73;;;8.10;49.10;;;;;;5025326;28;20429;-41
2021/01/19 10:57:07;;;;;;;3.83;3.30;;;8.00;49.20;;;;;;5026213;28;20440;-41
2021/01/19 10:59:34;;;;;;;5.10;3.13;;;8.00;49.30;;;;;;5016887;28;20492;-41
2021/01/19 11:02:00;;;;;;;4.23;3.00;;;8.10;49.50;;;;;;5018054;28;20436;-41
2021/01/19 11:04:26;;;;;;;3.80;2.87;;;8.10;49.40;;;;;;5024976;28;20435;-41
2021/01/19 11:06:51;;;;;;;3.93;3.07;;;8.20;49.00;;;;;;5026200;28;20190;-42
2021/01/19 11:09:17;;;;;;;3.50;3.20;;;8.20;49.20;;;;;;5025534;28;20510;-41
2021/01/19 11:11:43;;;;;;;5.90;3.40;;;8.30;49.40;;;;;;5019069;28;20229;-41
2021/01/19 11:14:09;;;;;;;3.43;3.13;;;8.30;48.90;;;;;;5028623;28;20641;-42
2021/01/19 11:16:38;;;;;;;5.43;3.30;;;8.30;49.40;;;;;;5019282;28;20815;-41
2021/01/19 11:19:12;;;;;;;4.93;3.67;;;8.10;49.60;;;;;;5020081;28;20856;-41
2021/01/19 11:21:38;;;;;;;5.57;3.20;;;7.30;50.20;;;;;;5020723;28;20452;-41
2021/01/19 11:24:06;;;;;;;6.53;3.83;;;7.30;51.30;;;;;;5026837;28;20438;-41
2021/01/19 11:26:32;;;;;;;4.57;3.40;;;7.30;51.50;;;;;;5029244;28;20940;-41
2021/01/19 11:28:58;;;;;;;4.53;3.53;;;7.40;52.00;;;;;;5017047;28;20484;-41
2021/01/19 11:31:28;;;;;;;5.13;3.23;;;7.10;51.20;;;;;;5018932;28;20807;-41
2021/01/19 11:33:58;;;;;;;4.30;3.20;;;7.40;51.50;;;;;;5015322;28;20524;-41
2021/01/19 11:36:25;;;;;;;4.73;3.10;;;7.60;50.70;;;;;;5018613;28;20813;-41
2021/01/19 11:38:51;;;;;;;6.00;3.67;;;7.60;50.80;;;;;;5022378;28;20437;-41
2021/01/19 11:41:19;;;;;;;4.40;3.50;;;7.80;50.50;;;;;;5020712;28;20508;-41
2021/01/19 11:43:45;;;;;;;3.73;2.93;;;7.70;50.10;;;;;;5021304;28;20819;-41
2021/01/19 11:46:11;;;;;;;4.97;3.40;;;8.00;50.00;;;;;;5021162;28;20431;-41
2021/01/19 11:48:37;;;;;;;7.90;3.50;;;8.30;49.60;;;;;;5022534;28;21001;-41
2021/01/19 11:51:03;;;;;;;3.87;3.03;;;8.50;48.80;;;;;;5022279;28;21078;-41
2021/01/19 11:53:29;;;;;;;7.00;3.30;;;8.50;48.20;;;;;;5020023;28;20476;-43
2021/01/19 11:55:58;;;;;;;4.23;3.40;;;8.60;48.60;;;;;;5028107;28;20515;-41
2021/01/19 11:58:23;;;;;;;6.03;3.57;;;8.50;48.30;;;;;;5023480;28;20194;-41
2021/01/19 12:00:49;;;;;;;6.43;3.40;;;8.40;48.90;;;;;;5025573;28;20509;-41
2021/01/19 12:03:18;;;;;;;4.80;3.50;;;8.50;48.80;;;;;;5022808;28;20653;-41
2021/01/19 12:05:44;;;;;;;5.40;4.60;;;8.50;48.70;;;;;;5019002;28;20225;-41
2021/01/19 12:08:10;;;;;;;7.63;4.10;;;8.60;48.70;;;;;;5026706;28;20494;-41
2021/01/19 12:10:36;;;;;;;7.20;4.30;;;8.70;48.50;;;;;;5024904;28;20440;-41
2021/01/19 12:13:07;;;;;;;8.83;3.90;;;8.60;48.00;;;;;;5017989;28;20664;-41
2021/01/19 12:15:33;;;;;;;4.83;4.00;;;8.60;48.30;;;;;;5021764;28;20581;-41
2021/01/19 12:17:59;;;;;;;6.43;4.03;;;8.50;48.90;;;;;;5019798;28;20417;-41
2021/01/19 12:20:25;;;;;;;5.17;3.90;;;8.70;49.30;;;;;;5027571;28;20680;-41
2021/01/19 12:22:50;;;;;;;7.53;4.27;;;8.80;49.40;;;;;;5022204;28;20789;-41
2021/01/19 12:25:16;;;;;;;4.67;3.73;;;8.90;49.40;;;;;;5019561;28;20197;-41
2021/01/19 12:27:41;;;;;;;4.30;3.53;;;8.90;49.40;;;;;;5017640;28;20217;-41
2021/01/19 12:30:07;;;;;;;5.87;3.87;;;8.80;49.80;;;;;;5020845;28;20224;-41
2021/01/19 12:32:33;;;;;;;4.97;3.70;;;8.90;49.80;;;;;;5022609;28;20675;-41
2021/01/19 12:34:58;;;;;;;4.43;3.90;;;8.80;49.00;;;;;;5018782;28;20555;-41
2021/01/19 12:37:24;;;;;;;4.50;3.87;;;8.70;48.80;;;;;;5023987;28;20664;-41
2021/01/19 12:39:50;;;;;;;4.40;3.60;;;8.60;49.10;;;;;;5019569;28;20197;-41
2021/01/19 12:42:15;;;;;;;6.77;5.03;;;8.80;49.60;;;;;;5029002;28;20219;-41
2021/01/19 12:44:41;;;;;;;3.97;2.93;;;8.80;49.20;;;;;;5027515;28;20201;-41
2021/01/19 12:47:07;;;;;;;4.50;3.17;;;8.90;49.10;;;;;;5029231;28;20197;-41
2021/01/19 12:49:32;;;;;;;5.73;2.67;;;8.50;48.90;;;;;;5027772;28;20205;-41
2021/01/19 12:51:58;;;;;;;4.10;2.87;;;8.40;49.70;;;;;;5024671;28;20290;-42
2021/01/19 12:54:23;;;;;;;4.00;3.60;;;8.30;50.00;;;;;;5021882;28;20223;-42
2021/01/19 12:56:49;;;;;;;2.90;2.60;;;8.30;50.50;;;;;;5021736;28;20228;-41
2021/01/19 12:59:15;;;;;;;4.43;2.83;;;8.20;51.20;;;;;;5021700;28;20193;-41
2021/01/19 13:01:40;;;;;;;2.53;1.83;;;7.90;51.30;;;;;;5021524;28;20646;-41
2021/01/19 13:04:06;;;;;;;2.47;2.23;;;7.90;52.40;;;;;;5017191;28;20193;-41
2021/01/19 13:06:32;;;;;;;3.70;2.40;;;7.80;52.80;;;;;;5020617;28;20197;-41